createdAt,value
2022-07-28T00:02:25.941Z,35.71
2022-07-28T00:07:27.891Z,36.45
2022-07-28T00:12:29.690Z,36.56
2022-07-28T00:17:32.237Z,36.63
2022-07-28T00:22:34.128Z,36.20
2022-07-28T00:27:36.125Z,36.16
2022-07-28T00:32:38.062Z,35.89
2022-07-28T00:37:40.213Z,35.84
2022-07-28T00:42:42.271Z,36.52
2022-07-28T00:47:44.088Z,37.01
2022-07-28T00:52:46.379Z,37.19
2022-07-28T00:57:48.314Z,36.90
2022-07-28T01:02:50.531Z,36.58
2022-07-28T01:08:10.527Z,37.00
2022-07-28T01:13:34.035Z,37.11
2022-07-28T01:18:35.841Z,37.79
2022-07-28T01:23:46.481Z,38.15
2022-07-28T01:28:57.421Z,38.11
2022-07-28T01:34:05.153Z,38.38
2022-07-28T01:39:07.104Z,37.97
2022-07-28T01:44:15.980Z,38.00
2022-07-28T01:49:21.524Z,37.94
2022-07-28T01:54:28.515Z,37.81
2022-07-28T01:59:31.834Z,38.12
2022-07-28T02:04:37.594Z,38.05
2022-07-28T02:09:40.680Z,38.24
2022-07-28T02:14:47.212Z,38.47
2022-07-28T02:19:50.327Z,38.48
2022-07-28T02:24:55.054Z,38.72
2022-07-28T02:30:08.701Z,39.09
2022-07-28T02:35:49.249Z,39.00
2022-07-28T02:40:54.852Z,39.10
2022-07-28T02:46:01.523Z,39.55
2022-07-28T02:51:05.332Z,38.95
2022-07-28T02:56:09.259Z,38.57
2022-07-28T03:01:12.052Z,38.87
2022-07-28T03:06:16.720Z,39.10
2022-07-28T03:11:18.680Z,38.82
2022-07-28T03:16:20.569Z,38.54
2022-07-28T03:21:25.025Z,38.52
2022-07-28T03:26:42.307Z,38.73
2022-07-28T03:31:48.106Z,38.46
2022-07-28T03:37:00.346Z,39.25
2022-07-28T03:42:03.744Z,39.57
2022-07-28T03:47:06.795Z,39.81
2022-07-28T03:52:08.795Z,40.08
2022-07-28T03:57:10.983Z,39.79
2022-07-28T04:02:12.861Z,39.40
2022-07-28T04:07:14.700Z,39.42
2022-07-28T04:12:16.503Z,39.22
2022-07-28T04:17:18.466Z,39.45
2022-07-28T04:22:20.254Z,39.85
2022-07-28T04:27:22.091Z,40.24
2022-07-28T04:32:23.899Z,40.48
2022-07-28T04:37:27.277Z,40.60
2022-07-28T04:42:34.755Z,40.50
2022-07-28T04:47:37.160Z,39.96
2022-07-28T04:52:40.034Z,39.80
2022-07-28T04:57:43.574Z,39.43
2022-07-28T05:02:45.912Z,39.18
2022-07-28T05:07:48.206Z,39.04
2022-07-28T05:12:50.609Z,39.10
2022-07-28T05:17:52.415Z,39.06
2022-07-28T05:22:54.248Z,38.92
2022-07-28T05:27:56.324Z,38.80
2022-07-28T05:33:01.384Z,38.81
2022-07-28T05:38:06.385Z,38.40
2022-07-28T05:43:12.245Z,38.53
2022-07-28T05:48:16.935Z,38.56
2022-07-28T05:53:19.549Z,38.71
2022-07-28T05:58:22.312Z,38.63
2022-07-28T06:03:24.147Z,38.55
2022-07-28T06:08:26.165Z,38.16
2022-07-28T06:13:30.906Z,37.87
2022-07-28T06:18:33.168Z,37.61
2022-07-28T06:23:35.211Z,37.46
2022-07-28T06:28:37.114Z,37.33
2022-07-28T06:33:39.008Z,36.87
2022-07-28T06:38:40.838Z,36.69
2022-07-28T06:43:42.766Z,36.58
2022-07-28T06:48:46.098Z,36.33
2022-07-28T06:53:48.923Z,35.85
2022-07-28T06:58:51.446Z,35.79
2022-07-28T07:03:53.557Z,35.83
2022-07-28T07:08:55.484Z,35.90
2022-07-28T07:13:57.809Z,35.67
2022-07-28T07:18:59.860Z,35.37
2022-07-28T07:24:11.698Z,35.43
2022-07-28T07:29:13.898Z,35.20
2022-07-28T07:34:16.919Z,35.15
2022-07-28T07:39:19.050Z,34.68
2022-07-28T07:44:20.896Z,34.35
2022-07-28T07:49:22.877Z,33.88
2022-07-28T07:54:24.811Z,33.33
2022-07-28T07:59:26.685Z,33.08
2022-07-28T08:04:28.889Z,32.83
2022-07-28T08:09:31.002Z,32.42
2022-07-28T08:14:37.034Z,31.35
2022-07-28T08:19:39.021Z,31.17
2022-07-28T08:24:40.977Z,30.82
2022-07-28T08:29:42.884Z,30.40
2022-07-28T08:34:44.874Z,30.14
2022-07-28T08:39:46.691Z,29.38
2022-07-28T08:45:09.087Z,29.13
2022-07-28T08:50:13.311Z,28.75
2022-07-28T08:55:19.552Z,28.10
2022-07-28T09:00:22.669Z,28.21
2022-07-28T09:05:26.089Z,27.72
2022-07-28T09:10:28.273Z,27.41
2022-07-28T09:15:30.248Z,27.44
2022-07-28T09:20:32.156Z,26.99
2022-07-28T09:25:34.776Z,27.23
2022-07-28T09:30:53.644Z,26.84
2022-07-28T09:35:58.520Z,27.05
2022-07-28T09:41:03.223Z,26.78
2022-07-28T09:46:15.772Z,26.51
2022-07-28T09:51:21.357Z,26.37
2022-07-28T09:56:25.965Z,25.99
2022-07-28T10:01:35.149Z,25.65
2022-07-28T10:06:40.768Z,25.06
2022-07-28T10:11:42.813Z,24.89
2022-07-28T10:16:52.863Z,24.53
2022-07-28T10:22:05.257Z,24.43
2022-07-28T10:27:08.265Z,24.61
2022-07-28T10:32:10.084Z,24.18
2022-07-28T10:37:19.147Z,23.93
2022-07-28T10:42:21.344Z,24.01
2022-07-28T10:47:24.518Z,23.63
2022-07-28T10:52:50.119Z,23.48
2022-07-28T10:58:25.042Z,22.86
2022-07-28T11:03:44.310Z,22.85
2022-07-28T11:08:47.551Z,22.67
2022-07-28T11:13:50.465Z,22.53
2022-07-28T11:19:36.440Z,22.14
2022-07-28T11:24:58.043Z,22.07
2022-07-28T11:30:00.261Z,21.48
2022-07-28T11:35:07.650Z,21.42
2022-07-28T11:40:45.576Z,21.39
2022-07-28T11:46:11.413Z,20.89
2022-07-28T11:51:14.619Z,20.63
2022-07-28T11:56:23.742Z,20.40
2022-07-28T12:01:25.681Z,20.47
2022-07-28T12:06:40.345Z,20.11
2022-07-28T12:11:42.704Z,19.57
2022-07-28T12:16:49.851Z,19.64
2022-07-28T12:21:52.925Z,19.93
2022-07-28T12:26:55.115Z,18.87
2022-07-28T12:31:59.571Z,18.81
2022-07-28T12:37:04.214Z,19.66
2022-07-28T12:42:08.343Z,19.39
2022-07-28T12:47:12.602Z,19.19
2022-07-28T12:52:25.060Z,18.95
2022-07-28T12:57:50.782Z,18.96
2022-07-28T13:02:56.251Z,19.07
2022-07-28T13:08:04.928Z,18.70
2022-07-28T13:13:07.924Z,18.27
2022-07-28T13:18:09.937Z,18.19
2022-07-28T13:23:11.816Z,18.80
2022-07-28T13:28:25.451Z,18.49
2022-07-28T13:33:27.305Z,18.54
2022-07-28T13:38:30.226Z,18.58
2022-07-28T13:43:35.774Z,18.68
2022-07-28T13:48:58.054Z,18.15
2022-07-28T13:54:02.040Z,17.92
2022-07-28T13:59:03.984Z,17.76
2022-07-28T14:04:14.633Z,17.66
2022-07-28T14:09:20.985Z,17.60
2022-07-28T14:14:25.391Z,17.95
2022-07-28T14:19:38.181Z,17.78
2022-07-28T14:24:42.041Z,18.18
2022-07-28T14:29:43.990Z,18.15
2022-07-28T14:34:45.829Z,18.13
2022-07-28T14:39:48.042Z,18.05
2022-07-28T14:44:49.883Z,17.96
2022-07-28T14:49:57.087Z,18.22
2022-07-28T14:55:00.284Z,18.05
2022-07-28T15:00:02.545Z,18.00
2022-07-28T15:05:05.452Z,18.44
2022-07-28T15:10:07.695Z,18.12
2022-07-28T15:15:11.447Z,18.36
2022-07-28T15:20:13.425Z,18.37
2022-07-28T15:25:15.293Z,18.10
2022-07-28T15:30:17.294Z,18.31
2022-07-28T15:35:20.269Z,18.34
2022-07-28T15:40:22.405Z,18.62
2022-07-28T15:45:24.338Z,18.79
2022-07-28T15:50:26.283Z,18.58
2022-07-28T15:55:28.119Z,18.52
2022-07-28T16:00:30.174Z,18.86
2022-07-28T16:05:32.069Z,18.86
2022-07-28T16:10:33.966Z,18.92
2022-07-28T16:15:36.003Z,19.08
2022-07-28T16:20:38.110Z,18.77
2022-07-28T16:25:44.801Z,19.05
2022-07-28T16:30:48.059Z,18.93
2022-07-28T16:35:53.292Z,19.13
2022-07-28T16:40:57.212Z,19.22
2022-07-28T16:46:01.820Z,19.11
2022-07-28T16:51:03.795Z,19.25
2022-07-28T16:56:06.820Z,19.22
2022-07-28T17:01:09.297Z,19.17
2022-07-28T17:06:11.569Z,19.28
2022-07-28T17:11:15.229Z,19.03
2022-07-28T17:16:17.155Z,19.40
2022-07-28T17:21:20.200Z,19.45
2022-07-28T17:31:44.521Z,19.63
2022-07-28T17:36:47.068Z,19.67
2022-07-28T17:41:48.949Z,19.67
2022-07-28T17:46:51.373Z,19.78
2022-07-28T17:51:53.501Z,19.63
2022-07-28T17:56:56.789Z,19.69
2022-07-28T18:01:58.797Z,19.77
2022-07-28T18:07:00.763Z,19.84
2022-07-28T18:12:03.059Z,19.79
2022-07-28T18:17:05.220Z,20.00
2022-07-28T18:22:07.261Z,20.18
2022-07-28T18:27:10.647Z,20.08
2022-07-28T18:32:14.486Z,20.19
2022-07-28T18:37:16.774Z,20.27
2022-07-28T18:42:19.111Z,20.27
2022-07-28T18:47:21.299Z,20.23
2022-07-28T18:52:23.550Z,20.35
2022-07-28T18:57:25.633Z,20.30
2022-07-28T19:02:28.083Z,20.38
2022-07-28T19:07:30.551Z,20.38
2022-07-28T19:12:34.342Z,20.46
2022-07-28T19:17:37.193Z,20.51
2022-07-28T19:22:40.263Z,20.57
2022-07-28T19:27:42.419Z,20.59
2022-07-28T19:32:44.557Z,20.62
2022-07-28T19:37:47.479Z,20.85
2022-07-28T19:42:49.454Z,21.05
2022-07-28T19:47:51.440Z,21.23
2022-07-28T19:52:53.510Z,21.41
2022-07-28T19:57:56.065Z,21.63
2022-07-28T20:02:58.372Z,21.94
2022-07-28T20:08:00.284Z,21.93
2022-07-28T20:13:17.167Z,22.14
2022-07-28T20:18:19.426Z,22.79
2022-07-28T20:23:21.351Z,22.89
2022-07-28T20:28:23.986Z,22.88
2022-07-28T20:33:25.802Z,23.09
2022-07-28T20:38:27.897Z,23.38
2022-07-28T20:43:37.031Z,23.67
2022-07-28T20:48:39.415Z,23.69
2022-07-28T20:53:41.269Z,23.83
2022-07-28T20:58:43.212Z,23.87
2022-07-28T21:03:45.353Z,24.17
2022-07-28T21:08:47.303Z,24.16
2022-07-28T21:13:49.270Z,24.40
2022-07-28T21:18:51.163Z,24.73
2022-07-28T21:23:53.051Z,25.13
2022-07-28T21:34:15.347Z,25.50
2022-07-28T21:39:17.537Z,25.62
2022-07-28T21:44:19.362Z,25.64
2022-07-28T21:49:21.321Z,25.69
2022-07-28T21:54:23.212Z,26.01
2022-07-28T21:59:25.100Z,26.18
2022-07-28T22:04:26.999Z,26.13
2022-07-28T22:09:31.098Z,26.12
2022-07-28T22:14:34.613Z,26.30
2022-07-28T22:19:36.455Z,26.36
2022-07-28T22:24:38.692Z,26.74
2022-07-28T22:29:45.940Z,26.66
2022-07-28T22:34:53.634Z,26.53
2022-07-28T22:39:55.497Z,26.99
2022-07-28T22:44:57.399Z,26.96
2022-07-28T22:49:59.265Z,27.04
2022-07-28T22:55:01.091Z,27.08
2022-07-28T23:00:03.938Z,27.57
2022-07-28T23:05:06.350Z,27.58
2022-07-28T23:10:09.506Z,27.63
2022-07-28T23:15:11.532Z,27.65
2022-07-28T23:20:13.438Z,27.50
2022-07-28T23:25:15.260Z,27.60
2022-07-28T23:30:17.421Z,27.69
2022-07-28T23:35:19.666Z,27.53
2022-07-28T23:40:21.605Z,27.77
2022-07-28T23:45:23.644Z,28.11
2022-07-28T23:50:26.410Z,28.01
2022-07-28T23:55:28.263Z,28.15
